createdAt,value
2017-07-24T00:00:45.082Z,20.33
2017-07-24T00:01:54.037Z,20.29
2017-07-24T00:03:03.317Z,20.39
2017-07-24T00:04:12.284Z,20.36
2017-07-24T00:05:21.248Z,20.33
2017-07-24T00:06:30.202Z,20.35
2017-07-24T00:07:39.480Z,20.28
2017-07-24T00:08:48.443Z,20.31
2017-07-24T00:09:57.394Z,20.31
2017-07-24T00:11:06.354Z,20.41
2017-07-24T00:12:15.635Z,20.36
2017-07-24T00:13:24.610Z,20.35
2017-07-24T00:14:33.561Z,20.35
2017-07-24T00:15:42.519Z,20.36
2017-07-24T00:16:51.526Z,20.33
2017-07-24T00:18:00.488Z,20.33
2017-07-24T00:19:09.450Z,20.48
2017-07-24T00:20:18.407Z,20.35
2017-07-24T00:21:27.358Z,20.41
2017-07-24T00:22:36.638Z,20.38
2017-07-24T00:23:45.596Z,20.35
2017-07-24T00:24:54.548Z,20.36
2017-07-24T00:26:03.523Z,20.33
2017-07-24T00:27:12.493Z,20.42
2017-07-24T00:28:21.774Z,20.36
2017-07-24T00:29:30.726Z,20.36
2017-07-24T00:30:39.686Z,20.39
2017-07-24T00:31:48.642Z,20.35
2017-07-24T00:32:57.596Z,20.39
2017-07-24T00:34:06.560Z,20.35
2017-07-24T00:35:15.516Z,20.33
2017-07-24T00:36:24.464Z,20.35
2017-07-24T00:37:33.454Z,20.39
2017-07-24T00:38:42.417Z,20.33
2017-07-24T00:39:51.370Z,20.31
2017-07-24T00:41:00.336Z,20.38
2017-07-24T00:42:09.610Z,20.32
2017-07-24T00:43:18.565Z,20.38
2017-07-24T00:44:27.526Z,20.31
2017-07-24T00:45:36.479Z,20.31
2017-07-24T00:46:45.440Z,20.35
2017-07-24T00:47:54.402Z,20.21
2017-07-24T00:49:03.364Z,20.31
2017-07-24T00:50:12.638Z,20.23
2017-07-24T00:51:21.598Z,20.24
2017-07-24T00:52:30.547Z,20.17
2017-07-24T00:53:39.504Z,20.21
2017-07-24T00:54:48.468Z,20.2
2017-07-24T00:55:57.426Z,20.21
2017-07-24T00:57:06.385Z,20.26
2017-07-24T00:58:15.347Z,20.17
2017-07-24T00:59:24.300Z,20.2
2017-07-24T01:00:33.262Z,20.23
2017-07-24T01:01:42.210Z,20.26
2017-07-24T01:02:51.175Z,20.18
2017-07-24T01:04:00.133Z,20.17
2017-07-24T01:05:09.091Z,20.2
2017-07-24T01:06:18.058Z,20.17
2017-07-24T01:07:27.034Z,20.16
2017-07-24T01:08:36.004Z,20.18
2017-07-24T01:09:44.978Z,20.2
2017-07-24T01:10:53.941Z,20.17
2017-07-24T01:12:02.904Z,20.16
2017-07-24T01:13:11.869Z,20.17
2017-07-24T01:14:20.825Z,20.21
2017-07-24T01:15:29.789Z,20.21
2017-07-24T01:16:38.753Z,20.16
2017-07-24T01:17:47.705Z,20.26
2017-07-24T01:18:56.656Z,20.24
2017-07-24T01:20:05.623Z,20.2
2017-07-24T01:21:14.582Z,20.21
2017-07-24T01:22:23.545Z,20.21
2017-07-24T01:23:32.508Z,20.2
2017-07-24T01:24:41.474Z,20.28
2017-07-24T01:25:50.432Z,20.21
2017-07-24T01:27:00.032Z,20.26
2017-07-24T01:28:08.991Z,20.23
2017-07-24T01:29:17.948Z,20.24
2017-07-24T01:30:26.912Z,20.14
2017-07-24T01:31:35.866Z,20.29
2017-07-24T01:32:44.819Z,20.21
2017-07-24T01:33:53.777Z,20.24
2017-07-24T01:35:02.739Z,20.23
2017-07-24T01:36:11.717Z,20.24
2017-07-24T01:37:20.671Z,20.18
2017-07-24T01:38:29.620Z,20.24
2017-07-24T01:39:38.892Z,20.14
2017-07-24T01:40:47.854Z,20.17
2017-07-24T01:41:56.813Z,20.17
2017-07-24T01:43:05.778Z,20.16
2017-07-24T01:44:14.742Z,20.2
2017-07-24T01:45:24.027Z,20.17
2017-07-24T01:46:32.983Z,20.16
2017-07-24T01:47:41.944Z,20.17
2017-07-24T01:48:50.902Z,20.11
2017-07-24T01:49:59.858Z,20.16
2017-07-24T01:51:08.831Z,20.14
2017-07-24T01:52:17.790Z,20.17
2017-07-24T01:53:26.745Z,20.11
2017-07-24T01:54:35.702Z,20.1
2017-07-24T01:55:44.664Z,20.13
2017-07-24T01:56:53.621Z,20.13
2017-07-24T01:58:02.902Z,20.23
2017-07-24T01:59:12.183Z,20.13
2017-07-24T02:00:21.466Z,20.08
2017-07-24T02:01:30.420Z,20.18
2017-07-24T02:02:39.375Z,20.2
2017-07-24T02:03:48.327Z,20.08
2017-07-24T02:04:57.289Z,20.17
2017-07-24T02:06:06.246Z,20.16
2017-07-24T02:07:15.532Z,20.18
2017-07-24T02:08:24.490Z,20.13
2017-07-24T02:09:33.467Z,20.18
2017-07-24T02:10:42.420Z,20.05
2017-07-24T02:11:51.379Z,20.11
2017-07-24T02:13:00.353Z,20.03
2017-07-24T02:14:09.312Z,20.11
2017-07-24T02:15:18.589Z,20.1
2017-07-24T02:16:27.551Z,20.06
2017-07-24T02:17:36.513Z,20.06
2017-07-24T02:18:45.470Z,20.03
2017-07-24T02:19:54.749Z,19.96
2017-07-24T02:21:03.720Z,20.01
2017-07-24T02:22:12.681Z,20.02
2017-07-24T02:23:21.640Z,20.02
2017-07-24T02:24:30.918Z,20.01
2017-07-24T02:25:39.877Z,20.01
2017-07-24T02:26:48.841Z,20.03
2017-07-24T02:27:58.122Z,19.99
2017-07-24T02:29:07.084Z,20.02
2017-07-24T02:30:16.047Z,20.1
2017-07-24T02:31:25.005Z,20.05
2017-07-24T02:32:33.967Z,20.08
2017-07-24T02:33:42.921Z,20.06
2017-07-24T02:34:52.208Z,20.02
2017-07-24T02:36:01.169Z,20.01
2017-07-24T02:37:10.166Z,20.02
2017-07-24T02:38:19.127Z,19.99
2017-07-24T02:39:28.088Z,19.91
2017-07-24T02:40:37.062Z,19.96
2017-07-24T02:41:46.014Z,19.87
2017-07-24T02:42:54.962Z,19.87
2017-07-24T02:44:03.931Z,19.86
2017-07-24T02:45:12.889Z,19.94
2017-07-24T02:46:21.848Z,19.91
2017-07-24T02:47:30.800Z,19.88
2017-07-24T02:48:40.089Z,19.87
2017-07-24T02:49:49.383Z,19.88
2017-07-24T02:50:58.346Z,19.87
2017-07-24T02:52:07.320Z,19.91
2017-07-24T02:53:16.277Z,19.84
2017-07-24T02:54:25.226Z,19.94
2017-07-24T02:55:34.178Z,19.92
2017-07-24T02:56:43.135Z,19.88
2017-07-24T02:57:52.103Z,19.84
2017-07-24T02:59:01.070Z,19.91
2017-07-24T03:00:10.360Z,19.86
2017-07-24T03:01:19.322Z,19.88
2017-07-24T03:02:28.291Z,19.84
2017-07-24T03:03:37.261Z,19.76
2017-07-24T03:04:46.224Z,19.8
2017-07-24T03:05:55.523Z,19.86
2017-07-24T03:07:04.812Z,19.73
2017-07-24T03:08:13.769Z,19.78
2017-07-24T03:09:22.741Z,19.78
2017-07-24T03:10:31.703Z,19.78
2017-07-24T03:11:40.980Z,19.78
2017-07-24T03:12:49.932Z,19.8
2017-07-24T03:13:58.888Z,19.81
2017-07-24T03:15:07.852Z,19.83
2017-07-24T03:16:16.802Z,19.77
2017-07-24T03:17:25.764Z,19.76
2017-07-24T03:18:34.719Z,19.73
2017-07-24T03:19:43.682Z,19.77
2017-07-24T03:20:52.648Z,19.73
2017-07-24T03:22:01.602Z,19.73
2017-07-24T03:23:10.555Z,19.78
2017-07-24T03:24:19.523Z,19.76
2017-07-24T03:25:28.470Z,19.76
2017-07-24T03:26:37.417Z,19.68
2017-07-24T03:27:46.382Z,19.68
2017-07-24T03:28:55.348Z,19.76
2017-07-24T03:30:04.354Z,19.63
2017-07-24T03:31:13.647Z,19.65
2017-07-24T03:32:22.609Z,19.69
2017-07-24T03:33:31.565Z,19.63
2017-07-24T03:34:40.518Z,19.61
2017-07-24T03:35:49.469Z,19.76
2017-07-24T03:36:58.421Z,19.66
2017-07-24T03:38:07.379Z,19.63
2017-07-24T03:39:16.347Z,19.63
2017-07-24T03:40:25.306Z,19.69
2017-07-24T03:41:34.269Z,19.66
2017-07-24T03:42:43.230Z,19.62
2017-07-24T03:43:52.194Z,19.61
2017-07-24T03:45:01.157Z,19.65
2017-07-24T03:46:10.122Z,19.56
2017-07-24T03:47:19.402Z,19.58
2017-07-24T03:48:28.365Z,19.61
2017-07-24T03:49:37.641Z,19.62
2017-07-24T03:50:46.597Z,19.68
2017-07-24T03:51:55.554Z,19.54
2017-07-24T03:53:04.524Z,19.59
2017-07-24T03:54:13.480Z,19.59
2017-07-24T03:55:22.432Z,19.63
2017-07-24T03:56:31.487Z,19.62
2017-07-24T03:57:40.445Z,19.63
2017-07-24T03:58:49.394Z,19.65
2017-07-24T03:59:58.357Z,19.65
2017-07-24T04:01:07.313Z,19.68
2017-07-24T04:02:16.277Z,19.56
2017-07-24T04:03:25.235Z,19.62
2017-07-24T04:04:34.191Z,19.63
2017-07-24T04:05:43.170Z,19.58
2017-07-24T04:06:52.128Z,19.63
2017-07-24T04:08:01.093Z,19.68
2017-07-24T04:09:10.045Z,19.62
2017-07-24T04:10:19.016Z,19.73
2017-07-24T04:11:27.981Z,19.77
2017-07-24T04:12:36.939Z,19.62
2017-07-24T04:13:45.888Z,19.71
2017-07-24T04:14:54.842Z,19.68
2017-07-24T04:16:03.796Z,19.65
2017-07-24T04:17:12.751Z,19.74
2017-07-24T04:18:21.707Z,19.65
2017-07-24T04:19:30.676Z,19.66
2017-07-24T04:20:39.961Z,19.68
2017-07-24T04:21:49.243Z,19.66
2017-07-24T04:22:58.198Z,19.68
2017-07-24T04:24:07.154Z,19.68
2017-07-24T04:25:16.113Z,19.62
2017-07-24T04:26:25.072Z,19.73
2017-07-24T04:27:34.034Z,19.65
2017-07-24T04:28:42.992Z,19.74
2017-07-24T04:29:51.954Z,19.76
2017-07-24T04:31:00.916Z,19.76
2017-07-24T04:32:09.885Z,19.81
2017-07-24T04:33:18.870Z,19.73
2017-07-24T04:34:28.147Z,19.8
2017-07-24T04:35:37.098Z,19.86
2017-07-24T04:36:46.382Z,19.84
2017-07-24T04:37:55.338Z,19.87
2017-07-24T04:39:04.290Z,19.91
2017-07-24T04:40:13.256Z,19.98
2017-07-24T04:41:22.220Z,19.96
2017-07-24T04:42:31.177Z,20.01
2017-07-24T04:43:40.464Z,20.08
2017-07-24T04:44:49.448Z,20.02
2017-07-24T04:45:58.412Z,20.02
2017-07-24T04:47:07.366Z,20.06
2017-07-24T04:48:16.317Z,20.1
2017-07-24T04:49:25.273Z,20.11
2017-07-24T04:50:34.229Z,20.13
2017-07-24T04:51:43.189Z,20.18
2017-07-24T04:52:52.154Z,20.18
2017-07-24T04:54:01.114Z,20.18
2017-07-24T04:55:10.070Z,20.13
2017-07-24T04:56:19.028Z,20.16
2017-07-24T04:57:27.988Z,20.16
2017-07-24T04:58:36.941Z,20.14
2017-07-24T04:59:45.896Z,20.18
2017-07-24T05:00:54.874Z,20.17
2017-07-24T05:02:03.833Z,20.16
2017-07-24T05:03:12.803Z,20.18
2017-07-24T05:04:21.759Z,20.18
2017-07-24T05:05:30.716Z,20.17
2017-07-24T05:06:39.674Z,20.14
2017-07-24T05:07:48.637Z,20.1
2017-07-24T05:08:57.597Z,20.18
2017-07-24T05:10:06.558Z,20.17
2017-07-24T05:11:15.511Z,20.18
2017-07-24T05:12:24.465Z,20.16
2017-07-24T05:13:33.430Z,20.13
2017-07-24T05:14:43.040Z,20.2
2017-07-24T05:15:51.995Z,20.16
2017-07-24T05:17:01.281Z,20.28
2017-07-24T05:18:10.241Z,20.26
2017-07-24T05:19:19.197Z,20.29
2017-07-24T05:20:28.148Z,20.29
2017-07-24T05:21:37.106Z,20.31
2017-07-24T05:22:46.064Z,20.33
2017-07-24T05:23:55.031Z,20.29
2017-07-24T05:25:04.640Z,20.33
2017-07-24T05:26:13.600Z,20.35
2017-07-24T05:27:22.556Z,20.31
2017-07-24T05:28:31.515Z,20.35
2017-07-24T05:29:40.470Z,20.35
2017-07-24T05:30:49.419Z,20.38
2017-07-24T05:31:58.381Z,20.39
2017-07-24T05:33:07.359Z,20.41
2017-07-24T05:34:16.325Z,20.38
2017-07-24T05:35:25.279Z,20.41
2017-07-24T05:36:34.238Z,20.5
2017-07-24T05:37:43.196Z,20.43
2017-07-24T05:38:52.156Z,20.5
2017-07-24T05:40:01.110Z,20.51
2017-07-24T05:41:10.065Z,20.52
2017-07-24T05:42:19.020Z,20.47
2017-07-24T05:43:27.976Z,20.47
2017-07-24T05:44:36.933Z,20.43
2017-07-24T05:45:45.898Z,20.5
2017-07-24T05:46:54.860Z,20.43
2017-07-24T05:48:03.824Z,20.48
2017-07-24T05:49:12.773Z,20.48
2017-07-24T05:50:21.722Z,20.48
2017-07-24T05:51:30.674Z,20.54
2017-07-24T05:52:39.637Z,20.55
2017-07-24T05:53:48.590Z,20.47
2017-07-24T05:54:57.551Z,20.64
2017-07-24T05:56:06.511Z,20.62
2017-07-24T05:57:15.465Z,20.57
2017-07-24T05:58:24.754Z,20.66
2017-07-24T05:59:33.710Z,20.57
2017-07-24T06:00:42.666Z,20.62
2017-07-24T06:01:51.626Z,20.69
2017-07-24T06:03:00.577Z,20.7
2017-07-24T06:04:09.851Z,20.73
2017-07-24T06:05:18.808Z,20.74
2017-07-24T06:06:27.767Z,20.69
2017-07-24T06:07:36.721Z,20.76
2017-07-24T06:08:45.682Z,20.74
2017-07-24T06:09:54.637Z,20.74
2017-07-24T06:11:03.600Z,20.74
2017-07-24T06:12:12.558Z,20.79
2017-07-24T06:13:21.848Z,20.82
2017-07-24T06:14:30.800Z,20.85
2017-07-24T06:15:39.760Z,20.8
2017-07-24T06:16:48.721Z,20.8
2017-07-24T06:17:57.681Z,20.87
2017-07-24T06:19:06.639Z,20.89
2017-07-24T06:20:15.594Z,20.94
2017-07-24T06:21:24.550Z,20.92
2017-07-24T06:22:33.513Z,20.89
2017-07-24T06:23:42.492Z,20.92
2017-07-24T06:24:51.452Z,20.84
2017-07-24T06:26:00.404Z,20.92
2017-07-24T06:27:09.364Z,20.89
2017-07-24T06:28:18.322Z,20.85
2017-07-24T06:29:27.280Z,20.91
2017-07-24T06:30:36.239Z,20.92
2017-07-24T06:31:45.193Z,21.03
2017-07-24T06:32:54.182Z,21.03
2017-07-24T06:34:03.145Z,20.99
2017-07-24T06:35:12.426Z,21.04
2017-07-24T06:36:21.381Z,21.01
2017-07-24T06:37:30.339Z,21.06
2017-07-24T06:38:39.311Z,21.07
2017-07-24T06:39:48.280Z,21.03
2017-07-24T06:40:57.239Z,21.1
2017-07-24T06:42:06.210Z,21.12
2017-07-24T06:43:15.501Z,21.1
2017-07-24T06:44:24.456Z,21.19
2017-07-24T06:45:33.417Z,21.17
2017-07-24T06:46:42.386Z,21.17
2017-07-24T06:47:51.659Z,21.16
2017-07-24T06:49:00.610Z,21.17
2017-07-24T06:50:09.580Z,21.21
2017-07-24T06:51:18.537Z,21.28
2017-07-24T06:52:27.823Z,21.32
2017-07-24T06:53:36.786Z,21.35
2017-07-24T06:54:45.745Z,21.34
2017-07-24T06:55:54.712Z,21.46
2017-07-24T06:57:03.670Z,21.38
2017-07-24T06:58:12.628Z,21.42
2017-07-24T06:59:21.598Z,21.44
2017-07-24T07:00:30.567Z,21.52
2017-07-24T07:01:39.525Z,21.58
2017-07-24T07:02:48.816Z,21.58
2017-07-24T07:03:57.768Z,21.59
2017-07-24T07:05:06.811Z,21.64
2017-07-24T07:06:16.737Z,21.56
2017-07-24T07:07:25.701Z,21.59
2017-07-24T07:08:34.661Z,21.71
2017-07-24T07:09:43.617Z,21.74
2017-07-24T07:10:52.575Z,21.74
2017-07-24T07:12:01.529Z,21.77
2017-07-24T07:13:10.484Z,21.74
2017-07-24T07:14:19.436Z,21.8
2017-07-24T07:15:28.726Z,21.8
2017-07-24T07:16:37.688Z,21.84
2017-07-24T07:17:46.646Z,21.88
2017-07-24T07:18:55.605Z,21.84
2017-07-24T07:20:04.568Z,21.86
2017-07-24T07:21:13.532Z,21.83
2017-07-24T07:22:22.810Z,21.96
2017-07-24T07:23:31.769Z,22.02
2017-07-24T07:24:40.729Z,22.02
2017-07-24T07:25:49.684Z,22.15
2017-07-24T07:26:58.639Z,22.1
2017-07-24T07:28:07.594Z,22.12
2017-07-24T07:29:16.547Z,22.28
2017-07-24T07:30:25.502Z,22.18
2017-07-24T07:31:34.453Z,22.3
2017-07-24T07:32:43.404Z,22.24
2017-07-24T07:33:52.361Z,22.35
2017-07-24T07:35:01.324Z,22.4
2017-07-24T07:36:10.599Z,22.39
2017-07-24T07:37:19.559Z,22.35
2017-07-24T07:38:28.523Z,22.39
2017-07-24T07:39:37.487Z,22.46
2017-07-24T07:40:46.445Z,22.47
2017-07-24T07:41:55.405Z,22.43
2017-07-24T07:43:04.364Z,22.52
2017-07-24T07:44:13.328Z,22.51
2017-07-24T07:45:22.297Z,22.52
2017-07-24T07:46:31.275Z,22.61
2017-07-24T07:47:40.242Z,22.61
2017-07-24T07:48:49.196Z,22.64
2017-07-24T07:49:58.146Z,22.67
2017-07-24T07:51:07.115Z,22.75
2017-07-24T07:52:16.078Z,22.73
2017-07-24T07:53:25.032Z,22.76
2017-07-24T07:54:33.986Z,22.7
2017-07-24T07:55:42.963Z,22.65
2017-07-24T07:56:51.913Z,22.72
2017-07-24T07:58:00.879Z,22.79
2017-07-24T07:59:10.157Z,22.85
2017-07-24T08:00:19.119Z,22.82
2017-07-24T08:01:28.074Z,22.82
2017-07-24T08:02:37.031Z,22.86
2017-07-24T08:03:45.986Z,22.9
2017-07-24T08:04:54.953Z,22.91
2017-07-24T08:06:03.919Z,22.88
2017-07-24T08:07:12.890Z,22.91
2017-07-24T08:08:22.494Z,22.92
2017-07-24T08:09:31.450Z,22.85
2017-07-24T08:10:40.411Z,22.91
2017-07-24T08:11:49.380Z,22.92
2017-07-24T08:12:58.355Z,22.91
2017-07-24T08:14:07.316Z,22.92
2017-07-24T08:15:16.281Z,22.91
2017-07-24T08:16:25.272Z,23.01
2017-07-24T08:17:34.231Z,23.01
2017-07-24T08:18:43.189Z,23.04
2017-07-24T08:19:52.149Z,23.05
2017-07-24T08:21:01.113Z,23.12
2017-07-24T08:22:10.076Z,23.07
2017-07-24T08:23:19.039Z,23.16
2017-07-24T08:24:28.021Z,23.25
2017-07-24T08:25:36.982Z,23.27
2017-07-24T08:26:45.936Z,23.31
2017-07-24T08:27:54.900Z,23.2
2017-07-24T08:29:03.871Z,23.36
2017-07-24T08:30:12.828Z,23.36
2017-07-24T08:31:21.790Z,23.4
2017-07-24T08:32:30.767Z,23.42
2017-07-24T08:33:39.733Z,23.4
2017-07-24T08:34:48.691Z,23.47
2017-07-24T08:35:57.971Z,23.48
2017-07-24T08:37:06.939Z,23.6
2017-07-24T08:38:16.233Z,23.57
2017-07-24T08:39:25.191Z,23.57
2017-07-24T08:40:34.473Z,23.68
2017-07-24T08:41:43.437Z,23.72
2017-07-24T08:42:52.403Z,23.7
2017-07-24T08:44:01.364Z,23.75
2017-07-24T08:45:10.319Z,23.7
2017-07-24T08:46:19.277Z,23.79
2017-07-24T08:47:28.236Z,23.84
2017-07-24T08:48:37.196Z,23.88
2017-07-24T08:49:46.152Z,23.83
2017-07-24T08:50:55.111Z,23.79
2017-07-24T08:52:04.075Z,23.73
2017-07-24T08:53:13.043Z,23.84
2017-07-24T08:54:22.325Z,23.69
2017-07-24T08:55:31.283Z,23.65
2017-07-24T08:56:40.239Z,23.7
2017-07-24T08:57:49.200Z,23.58
2017-07-24T08:58:58.168Z,23.61
2017-07-24T09:00:07.123Z,23.53
2017-07-24T09:01:16.084Z,23.48
2017-07-24T09:02:25.045Z,23.39
2017-07-24T09:03:34.004Z,23.36
2017-07-24T09:04:42.956Z,23.39
2017-07-24T09:05:51.923Z,23.39
2017-07-24T09:07:00.882Z,23.35
2017-07-24T09:08:09.854Z,23.23
2017-07-24T09:09:19.136Z,23.23
2017-07-24T09:10:28.104Z,23.27
2017-07-24T09:11:37.095Z,23.25
2017-07-24T09:12:46.377Z,23.23
2017-07-24T09:13:55.336Z,23.31
2017-07-24T09:15:04.293Z,23.27
2017-07-24T09:16:13.251Z,23.36
2017-07-24T09:17:22.211Z,23.36
2017-07-24T09:18:31.171Z,23.46
2017-07-24T09:19:40.136Z,23.57
2017-07-24T09:20:49.091Z,23.58
2017-07-24T09:21:58.051Z,23.63
2017-07-24T09:23:07.006Z,23.66
2017-07-24T09:24:15.956Z,23.72
2017-07-24T09:25:24.922Z,23.76
2017-07-24T09:26:33.888Z,23.8
2017-07-24T09:27:43.164Z,23.83
2017-07-24T09:28:52.123Z,23.91
2017-07-24T09:30:01.088Z,23.84
2017-07-24T09:31:10.045Z,23.78
2017-07-24T09:32:19.328Z,23.84
2017-07-24T09:33:28.625Z,23.83
2017-07-24T09:34:37.582Z,23.69
2017-07-24T09:35:46.556Z,23.7
2017-07-24T09:36:55.516Z,23.66
2017-07-24T09:38:04.481Z,23.65
2017-07-24T09:39:13.448Z,23.63
2017-07-24T09:40:22.407Z,23.66
2017-07-24T09:41:31.384Z,23.58
2017-07-24T09:42:40.344Z,23.58
2017-07-24T09:43:49.636Z,23.63
2017-07-24T09:44:58.597Z,23.6
2017-07-24T09:46:07.579Z,23.65
2017-07-24T09:47:16.561Z,23.58
2017-07-24T09:48:25.517Z,23.69
2017-07-24T09:49:34.809Z,23.76
2017-07-24T09:50:43.776Z,23.85
2017-07-24T09:51:52.739Z,23.83
2017-07-24T09:53:01.690Z,23.87
2017-07-24T09:54:10.650Z,23.85
2017-07-24T09:55:19.614Z,23.91
2017-07-24T09:56:28.574Z,23.84
2017-07-24T09:57:37.548Z,23.84
2017-07-24T09:58:46.506Z,23.88
2017-07-24T09:59:55.471Z,23.85
2017-07-24T10:01:04.757Z,23.87
2017-07-24T10:02:13.713Z,23.91
2017-07-24T10:03:22.672Z,23.9
2017-07-24T10:04:31.635Z,23.9
2017-07-24T10:05:40.591Z,23.93
2017-07-24T10:06:49.556Z,23.93
2017-07-24T10:07:58.508Z,23.91
2017-07-24T10:09:07.796Z,23.88
2017-07-24T10:10:16.758Z,23.93
2017-07-24T10:11:26.045Z,23.95
2017-07-24T10:12:35.012Z,23.98
2017-07-24T10:13:43.975Z,24.06
2017-07-24T10:14:52.938Z,24.08
2017-07-24T10:16:01.887Z,24.13
2017-07-24T10:17:11.189Z,24.2
2017-07-24T10:18:20.152Z,24.25
2017-07-24T10:19:29.120Z,24.3
2017-07-24T10:20:38.084Z,24.42
2017-07-24T10:21:47.061Z,24.39
2017-07-24T10:22:56.014Z,24.53
2017-07-24T10:24:04.971Z,24.57
2017-07-24T10:25:13.931Z,24.62
2017-07-24T10:26:22.984Z,24.6
2017-07-24T10:27:31.942Z,24.64
2017-07-24T10:28:40.906Z,24.73
2017-07-24T10:29:49.861Z,24.8
2017-07-24T10:30:58.817Z,24.87
2017-07-24T10:32:07.788Z,24.9
2017-07-24T10:33:16.749Z,24.9
2017-07-24T10:34:25.707Z,24.88
2017-07-24T10:35:34.676Z,24.9
2017-07-24T10:36:43.654Z,24.93
2017-07-24T10:37:52.955Z,24.98
2017-07-24T10:39:01.918Z,24.91
2017-07-24T10:40:10.880Z,24.93
2017-07-24T10:41:19.845Z,24.88
2017-07-24T10:42:28.797Z,24.87
2017-07-24T10:43:37.755Z,24.95
2017-07-24T10:44:46.710Z,24.9
2017-07-24T10:45:55.676Z,24.88
2017-07-24T10:47:04.642Z,24.87
2017-07-24T10:48:13.601Z,24.9
2017-07-24T10:49:22.573Z,24.88
2017-07-24T10:50:31.538Z,24.87
2017-07-24T10:51:40.512Z,24.84
2017-07-24T10:52:49.468Z,24.88
2017-07-24T10:53:58.428Z,24.84
2017-07-24T10:55:07.387Z,24.85
2017-07-24T10:56:16.352Z,24.87
2017-07-24T10:57:25.317Z,24.84
2017-07-24T10:58:34.273Z,24.88
2017-07-24T10:59:43.234Z,24.85
2017-07-24T11:00:52.202Z,24.91
2017-07-24T11:02:01.171Z,24.91
2017-07-24T11:03:10.134Z,24.88
2017-07-24T11:04:19.415Z,24.9
2017-07-24T11:05:28.370Z,24.93
2017-07-24T11:06:37.331Z,24.85
2017-07-24T11:07:46.303Z,24.96
2017-07-24T11:08:55.263Z,24.9
2017-07-24T11:10:04.554Z,24.9
2017-07-24T11:11:13.514Z,24.93
2017-07-24T11:12:22.470Z,24.88
2017-07-24T11:13:31.432Z,24.84
2017-07-24T11:14:40.394Z,24.81
2017-07-24T11:15:49.355Z,24.85
2017-07-24T11:16:58.316Z,24.96
2017-07-24T11:18:07.281Z,24.93
2017-07-24T11:19:16.231Z,24.91
2017-07-24T11:20:25.195Z,24.91
2017-07-24T11:21:34.165Z,24.87
2017-07-24T11:22:43.122Z,24.85
2017-07-24T11:23:52.072Z,24.78
2017-07-24T11:25:01.036Z,24.77
2017-07-24T11:26:09.990Z,24.69
2017-07-24T11:27:18.945Z,24.76
2017-07-24T11:28:27.908Z,24.76
2017-07-24T11:29:36.864Z,24.77
2017-07-24T11:30:45.834Z,24.73
2017-07-24T11:31:54.798Z,24.77
2017-07-24T11:33:03.757Z,24.85
2017-07-24T11:34:12.711Z,24.85
2017-07-24T11:35:21.689Z,24.95
2017-07-24T11:36:30.647Z,24.87
2017-07-24T11:37:39.595Z,24.88
2017-07-24T11:38:48.551Z,24.88
2017-07-24T11:39:57.515Z,24.95
2017-07-24T11:41:06.479Z,24.96
2017-07-24T11:42:15.442Z,24.91
2017-07-24T11:43:24.409Z,24.9
2017-07-24T11:44:33.370Z,24.88
2017-07-24T11:45:42.336Z,24.91
2017-07-24T11:46:51.294Z,24.85
2017-07-24T11:48:00.254Z,24.9
2017-07-24T11:49:09.231Z,24.8
2017-07-24T11:50:18.514Z,24.84
2017-07-24T11:51:27.484Z,24.8
2017-07-24T11:52:36.774Z,24.8
2017-07-24T11:53:45.728Z,24.73
2017-07-24T11:54:54.699Z,24.76
2017-07-24T11:56:03.998Z,24.69
2017-07-24T11:57:12.953Z,24.69
2017-07-24T11:58:21.917Z,24.71
2017-07-24T11:59:30.878Z,24.67
2017-07-24T12:00:39.836Z,24.62
2017-07-24T12:01:48.797Z,24.76
2017-07-24T12:02:57.757Z,24.62
2017-07-24T12:04:06.726Z,24.65
2017-07-24T12:05:16.045Z,24.62
2017-07-24T12:06:25.008Z,24.69
2017-07-24T12:07:33.968Z,24.62
2017-07-24T12:08:43.252Z,24.68
2017-07-24T12:09:52.211Z,24.68
2017-07-24T12:11:01.173Z,24.65
2017-07-24T12:12:10.135Z,24.65
2017-07-24T12:13:19.111Z,24.57
2017-07-24T12:14:28.071Z,24.61
2017-07-24T12:15:37.025Z,24.6
2017-07-24T12:16:45.985Z,24.61
2017-07-24T12:17:54.952Z,24.61
2017-07-24T12:19:03.933Z,24.6
2017-07-24T12:20:12.889Z,24.61
2017-07-24T12:21:21.852Z,24.65
2017-07-24T12:22:31.143Z,24.69
2017-07-24T12:23:40.108Z,24.62
2017-07-24T12:24:49.393Z,24.6
2017-07-24T12:25:58.676Z,24.62
2017-07-24T12:27:07.637Z,24.65
2017-07-24T12:28:16.592Z,24.67
2017-07-24T12:29:25.549Z,24.69
2017-07-24T12:30:34.511Z,24.68
2017-07-24T12:31:43.468Z,24.76
2017-07-24T12:32:52.427Z,24.77
2017-07-24T12:34:01.384Z,24.77
2017-07-24T12:35:10.376Z,24.69
2017-07-24T12:36:19.343Z,24.69
2017-07-24T12:37:28.308Z,24.73
2017-07-24T12:38:37.277Z,24.76
2017-07-24T12:39:46.249Z,24.73
2017-07-24T12:40:55.210Z,24.78
2017-07-24T12:42:04.174Z,24.77
2017-07-24T12:43:13.124Z,24.77
2017-07-24T12:44:22.078Z,24.77
2017-07-24T12:45:31.055Z,24.83
2017-07-24T12:46:40.018Z,24.85
2017-07-24T12:47:48.975Z,24.9
2017-07-24T12:48:57.925Z,24.96
2017-07-24T12:50:07.207Z,24.98
2017-07-24T12:51:16.182Z,25.03
2017-07-24T12:52:25.139Z,24.99
2017-07-24T12:53:34.098Z,25
2017-07-24T12:54:43.078Z,24.91
2017-07-24T12:55:52.355Z,25.02
2017-07-24T12:57:01.319Z,25.06
2017-07-24T12:58:10.275Z,25.05
2017-07-24T12:59:19.236Z,25.05
2017-07-24T13:00:28.214Z,24.88
2017-07-24T13:01:37.186Z,25
2017-07-24T13:02:46.154Z,25.08
2017-07-24T13:03:55.112Z,25.06
2017-07-24T13:05:04.079Z,25.03
2017-07-24T13:06:13.773Z,25
2017-07-24T13:07:22.734Z,25
2017-07-24T13:08:31.693Z,25.08
2017-07-24T13:09:40.973Z,25.05
2017-07-24T13:10:49.933Z,25.05
2017-07-24T13:11:58.889Z,25.09
2017-07-24T13:13:07.843Z,24.96
2017-07-24T13:14:16.828Z,25.03
2017-07-24T13:15:25.784Z,25.06
2017-07-24T13:16:34.750Z,24.95
2017-07-24T13:17:43.724Z,24.99
2017-07-24T13:18:52.684Z,24.93
2017-07-24T13:20:01.638Z,24.91
2017-07-24T13:21:10.604Z,25.02
2017-07-24T13:22:19.891Z,24.96
2017-07-24T13:23:28.857Z,24.9
2017-07-24T13:24:38.135Z,24.96
2017-07-24T13:25:47.099Z,24.93
2017-07-24T13:26:56.075Z,24.88
2017-07-24T13:28:05.357Z,24.9
2017-07-24T13:29:14.324Z,24.93
2017-07-24T13:30:23.283Z,24.95
2017-07-24T13:31:32.238Z,24.91
2017-07-24T13:32:41.207Z,24.96
2017-07-24T13:33:50.164Z,24.91
2017-07-24T13:34:59.141Z,24.91
2017-07-24T13:36:08.114Z,24.88
2017-07-24T13:37:17.069Z,24.9
2017-07-24T13:38:26.029Z,24.85
2017-07-24T13:39:34.990Z,24.91
2017-07-24T13:40:43.977Z,24.91
2017-07-24T13:41:53.267Z,24.88
2017-07-24T13:43:02.235Z,24.84
2017-07-24T13:44:11.197Z,24.88
2017-07-24T13:45:20.158Z,24.9
2017-07-24T13:46:29.201Z,24.88
2017-07-24T13:47:38.164Z,24.88
2017-07-24T13:48:47.122Z,24.87
2017-07-24T13:49:56.087Z,24.88
2017-07-24T13:51:05.050Z,24.93
2017-07-24T13:52:14.013Z,24.9
2017-07-24T13:53:22.971Z,24.84
2017-07-24T13:54:31.919Z,24.9
2017-07-24T13:55:41.192Z,24.93
2017-07-24T13:56:50.157Z,24.85
2017-07-24T13:57:59.115Z,24.93
2017-07-24T13:59:08.083Z,24.91
2017-07-24T14:00:17.044Z,24.91
2017-07-24T14:01:25.998Z,24.78
2017-07-24T14:02:34.962Z,24.87
2017-07-24T14:03:43.918Z,24.85
2017-07-24T14:04:52.883Z,24.77
2017-07-24T14:06:01.858Z,24.77
2017-07-24T14:07:10.811Z,24.71
2017-07-24T14:08:19.768Z,24.73
2017-07-24T14:09:28.731Z,24.73
2017-07-24T14:10:37.694Z,24.69
2017-07-24T14:11:46.973Z,24.78
2017-07-24T14:12:55.934Z,24.68
2017-07-24T14:14:04.899Z,24.76
2017-07-24T14:15:13.866Z,24.76
2017-07-24T14:16:22.822Z,24.76
2017-07-24T14:17:31.779Z,24.81
2017-07-24T14:18:40.750Z,24.8
2017-07-24T14:19:49.721Z,24.84
2017-07-24T14:20:58.676Z,24.81
2017-07-24T14:22:07.645Z,24.84
2017-07-24T14:23:16.933Z,24.76
2017-07-24T14:24:25.889Z,24.84
2017-07-24T14:25:34.855Z,24.77
2017-07-24T14:26:43.814Z,24.81
2017-07-24T14:27:52.770Z,24.84
2017-07-24T14:29:01.734Z,24.84
2017-07-24T14:30:10.691Z,24.8
2017-07-24T14:31:19.655Z,24.83
2017-07-24T14:32:28.944Z,24.87
2017-07-24T14:33:37.904Z,24.88
2017-07-24T14:34:46.863Z,24.84
2017-07-24T14:35:55.816Z,24.88
2017-07-24T14:37:04.768Z,24.93
2017-07-24T14:38:13.728Z,24.81
2017-07-24T14:39:22.685Z,24.93
2017-07-24T14:40:31.657Z,24.96
2017-07-24T14:41:40.616Z,24.9
2017-07-24T14:42:49.577Z,24.95
2017-07-24T14:43:58.547Z,24.91
2017-07-24T14:45:07.508Z,24.8
2017-07-24T14:46:16.472Z,24.78
2017-07-24T14:47:25.435Z,24.84
2017-07-24T14:48:34.402Z,24.78
2017-07-24T14:49:43.376Z,24.84
2017-07-24T14:50:52.339Z,24.78
2017-07-24T14:52:01.317Z,24.8